sensor_id;sensor_type;location;lat;lon;timestamp;temperature;humidity
71206;SHT31;58935;54.498;18.544;2023-04-16T00:01:20;8.59;81.11
71206;SHT31;58935;54.498;18.544;2023-04-16T00:03:45;8.59;81.27
71206;SHT31;58935;54.498;18.544;2023-04-16T00:06:11;8.58;81.42
71206;SHT31;58935;54.498;18.544;2023-04-16T00:08:36;8.61;81.53
71206;SHT31;58935;54.498;18.544;2023-04-16T00:11:02;8.61;81.51
71206;SHT31;58935;54.498;18.544;2023-04-16T00:13:29;8.62;81.56
71206;SHT31;58935;54.498;18.544;2023-04-16T00:15:55;8.61;81.60
71206;SHT31;58935;54.498;18.544;2023-04-16T00:18:20;8.60;81.69
71206;SHT31;58935;54.498;18.544;2023-04-16T00:20:48;8.59;81.80
71206;SHT31;58935;54.498;18.544;2023-04-16T00:23:14;8.60;81.89
71206;SHT31;58935;54.498;18.544;2023-04-16T00:25:40;8.56;81.73
71206;SHT31;58935;54.498;18.544;2023-04-16T00:28:06;8.51;81.89
71206;SHT31;58935;54.498;18.544;2023-04-16T00:30:35;8.46;82.02
71206;SHT31;58935;54.498;18.544;2023-04-16T00:33:00;8.43;82.25
71206;SHT31;58935;54.498;18.544;2023-04-16T00:35:26;8.40;82.43
71206;SHT31;58935;54.498;18.544;2023-04-16T00:37:52;8.35;82.67
71206;SHT31;58935;54.498;18.544;2023-04-16T00:40:17;8.31;82.88
71206;SHT31;58935;54.498;18.544;2023-04-16T00:42:42;8.30;83.12
71206;SHT31;58935;54.498;18.544;2023-04-16T00:45:08;8.26;83.31
71206;SHT31;58935;54.498;18.544;2023-04-16T00:47:34;8.22;83.54
71206;SHT31;58935;54.498;18.544;2023-04-16T00:50:00;8.18;83.74
71206;SHT31;58935;54.498;18.544;2023-04-16T00:52:27;8.13;83.91
71206;SHT31;58935;54.498;18.544;2023-04-16T00:54:53;8.08;84.06
71206;SHT31;58935;54.498;18.544;2023-04-16T00:57:18;8.06;84.08
71206;SHT31;58935;54.498;18.544;2023-04-16T00:59:45;8.03;84.09
71206;SHT31;58935;54.498;18.544;2023-04-16T01:02:10;8.01;84.19
71206;SHT31;58935;54.498;18.544;2023-04-16T01:04:36;8.00;84.20
71206;SHT31;58935;54.498;18.544;2023-04-16T01:07:01;8.00;84.20
71206;SHT31;58935;54.498;18.544;2023-04-16T01:09:27;8.01;84.21
71206;SHT31;58935;54.498;18.544;2023-04-16T01:11:52;8.00;84.17
71206;SHT31;58935;54.498;18.544;2023-04-16T01:14:17;7.99;84.10
71206;SHT31;58935;54.498;18.544;2023-04-16T01:16:47;8.00;84.10
71206;SHT31;58935;54.498;18.544;2023-04-16T01:19:13;8.01;84.24
71206;SHT31;58935;54.498;18.544;2023-04-16T01:21:38;8.05;84.17
71206;SHT31;58935;54.498;18.544;2023-04-16T01:24:03;8.06;83.99
71206;SHT31;58935;54.498;18.544;2023-04-16T01:26:29;8.04;83.92
71206;SHT31;58935;54.498;18.544;2023-04-16T01:28:55;8.05;83.91
71206;SHT31;58935;54.498;18.544;2023-04-16T01:31:20;8.06;83.85
71206;SHT31;58935;54.498;18.544;2023-04-16T01:33:46;8.07;83.83
71206;SHT31;58935;54.498;18.544;2023-04-16T01:36:13;8.06;83.76
71206;SHT31;58935;54.498;18.544;2023-04-16T01:38:38;8.04;83.81
71206;SHT31;58935;54.498;18.544;2023-04-16T01:41:04;8.01;83.90
71206;SHT31;58935;54.498;18.544;2023-04-16T01:43:29;7.99;84.00
71206;SHT31;58935;54.498;18.544;2023-04-16T01:45:58;7.99;84.11
71206;SHT31;58935;54.498;18.544;2023-04-16T01:48:36;7.96;84.29
71206;SHT31;58935;54.498;18.544;2023-04-16T01:51:01;7.95;84.50
71206;SHT31;58935;54.498;18.544;2023-04-16T01:53:31;7.91;84.55
71206;SHT31;58935;54.498;18.544;2023-04-16T01:55:56;7.90;84.83
71206;SHT31;58935;54.498;18.544;2023-04-16T01:58:22;7.87;84.89
71206;SHT31;58935;54.498;18.544;2023-04-16T02:00:52;7.86;85.09
71206;SHT31;58935;54.498;18.544;2023-04-16T02:03:17;7.84;85.17
71206;SHT31;58935;54.498;18.544;2023-04-16T02:05:42;7.82;85.27
71206;SHT31;58935;54.498;18.544;2023-04-16T02:08:07;7.81;85.30
71206;SHT31;58935;54.498;18.544;2023-04-16T02:10:33;7.81;85.33
71206;SHT31;58935;54.498;18.544;2023-04-16T02:12:58;7.84;85.43
71206;SHT31;58935;54.498;18.544;2023-04-16T02:15:23;7.84;85.34
71206;SHT31;58935;54.498;18.544;2023-04-16T02:17:49;7.83;85.26
71206;SHT31;58935;54.498;18.544;2023-04-16T02:20:19;7.84;85.29
71206;SHT31;58935;54.498;18.544;2023-04-16T02:22:46;7.84;85.24
71206;SHT31;58935;54.498;18.544;2023-04-16T02:25:12;7.86;85.21
71206;SHT31;58935;54.498;18.544;2023-04-16T02:27:38;7.88;85.25
71206;SHT31;58935;54.498;18.544;2023-04-16T02:30:03;7.90;85.12
71206;SHT31;58935;54.498;18.544;2023-04-16T02:32:31;7.91;85.11
71206;SHT31;58935;54.498;18.544;2023-04-16T02:34:57;7.95;85.12
71206;SHT31;58935;54.498;18.544;2023-04-16T02:37:22;7.97;84.93
71206;SHT31;58935;54.498;18.544;2023-04-16T02:39:48;7.99;84.81
71206;SHT31;58935;54.498;18.544;2023-04-16T02:42:18;7.98;84.62
71206;SHT31;58935;54.498;18.544;2023-04-16T02:44:44;7.96;84.61
71206;SHT31;58935;54.498;18.544;2023-04-16T02:47:11;7.94;84.56
71206;SHT31;58935;54.498;18.544;2023-04-16T02:49:36;7.92;84.53
71206;SHT31;58935;54.498;18.544;2023-04-16T02:52:01;7.90;84.70
71206;SHT31;58935;54.498;18.544;2023-04-16T02:54:29;7.94;84.80
71206;SHT31;58935;54.498;18.544;2023-04-16T02:56:55;7.96;84.62
71206;SHT31;58935;54.498;18.544;2023-04-16T02:59:20;7.95;84.51
71206;SHT31;58935;54.498;18.544;2023-04-16T03:01:46;7.95;84.50
71206;SHT31;58935;54.498;18.544;2023-04-16T03:04:11;7.94;84.70
71206;SHT31;58935;54.498;18.544;2023-04-16T03:06:39;7.99;84.73
71206;SHT31;58935;54.498;18.544;2023-04-16T03:09:04;8.00;84.47
71206;SHT31;58935;54.498;18.544;2023-04-16T03:11:30;7.97;84.36
71206;SHT31;58935;54.498;18.544;2023-04-16T03:13:57;7.93;84.30
71206;SHT31;58935;54.498;18.544;2023-04-16T03:16:23;7.90;84.33
71206;SHT31;58935;54.498;18.544;2023-04-16T03:18:48;7.88;84.34
71206;SHT31;58935;54.498;18.544;2023-04-16T03:21:13;7.87;84.42
71206;SHT31;58935;54.498;18.544;2023-04-16T03:23:39;7.87;84.60
71206;SHT31;58935;54.498;18.544;2023-04-16T03:26:04;7.89;84.57
71206;SHT31;58935;54.498;18.544;2023-04-16T03:28:30;7.87;84.48
71206;SHT31;58935;54.498;18.544;2023-04-16T03:30:55;7.89;84.64
71206;SHT31;58935;54.498;18.544;2023-04-16T03:33:21;7.91;84.62
71206;SHT31;58935;54.498;18.544;2023-04-16T03:35:53;7.93;84.66
71206;SHT31;58935;54.498;18.544;2023-04-16T03:38:19;7.97;84.55
71206;SHT31;58935;54.498;18.544;2023-04-16T03:40:44;7.98;84.51
71206;SHT31;58935;54.498;18.544;2023-04-16T03:43:10;8.00;84.46
71206;SHT31;58935;54.498;18.544;2023-04-16T03:45:35;7.99;84.35
71206;SHT31;58935;54.498;18.544;2023-04-16T03:48:00;7.98;84.36
71206;SHT31;58935;54.498;18.544;2023-04-16T03:50:28;7.97;84.28
71206;SHT31;58935;54.498;18.544;2023-04-16T03:52:53;7.97;84.44
71206;SHT31;58935;54.498;18.544;2023-04-16T03:55:18;7.97;84.47
71206;SHT31;58935;54.498;18.544;2023-04-16T03:57:44;7.99;84.48
71206;SHT31;58935;54.498;18.544;2023-04-16T04:00:11;7.96;84.21
71206;SHT31;58935;54.498;18.544;2023-04-16T04:02:37;7.92;84.27
71206;SHT31;58935;54.498;18.544;2023-04-16T04:05:04;7.88;84.31
71206;SHT31;58935;54.498;18.544;2023-04-16T04:07:30;7.88;84.56
71206;SHT31;58935;54.498;18.544;2023-04-16T04:09:59;7.91;84.60
71206;SHT31;58935;54.498;18.544;2023-04-16T04:12:25;7.88;84.38
71206;SHT31;58935;54.498;18.544;2023-04-16T04:14:51;7.88;84.43
71206;SHT31;58935;54.498;18.544;2023-04-16T04:17:16;7.87;84.38
71206;SHT31;58935;54.498;18.544;2023-04-16T04:19:44;7.86;84.52
71206;SHT31;58935;54.498;18.544;2023-04-16T04:22:09;7.90;84.58
71206;SHT31;58935;54.498;18.544;2023-04-16T04:24:34;7.91;84.57
71206;SHT31;58935;54.498;18.544;2023-04-16T04:27:00;7.93;84.44
71206;SHT31;58935;54.498;18.544;2023-04-16T04:29:26;7.89;84.22
71206;SHT31;58935;54.498;18.544;2023-04-16T04:31:51;7.86;84.28
71206;SHT31;58935;54.498;18.544;2023-04-16T04:34:19;7.83;84.36
71206;SHT31;58935;54.498;18.544;2023-04-16T04:36:44;7.81;84.45
71206;SHT31;58935;54.498;18.544;2023-04-16T04:39:12;7.80;84.57
71206;SHT31;58935;54.498;18.544;2023-04-16T04:41:38;7.78;84.50
71206;SHT31;58935;54.498;18.544;2023-04-16T04:44:03;7.78;84.61
71206;SHT31;58935;54.498;18.544;2023-04-16T04:46:28;7.80;84.77
71206;SHT31;58935;54.498;18.544;2023-04-16T04:48:54;7.82;84.73
71206;SHT31;58935;54.498;18.544;2023-04-16T04:51:19;7.81;84.51
71206;SHT31;58935;54.498;18.544;2023-04-16T04:53:44;7.81;84.66
71206;SHT31;58935;54.498;18.544;2023-04-16T04:56:10;7.82;84.72
71206;SHT31;58935;54.498;18.544;2023-04-16T04:58:35;7.84;84.74
71206;SHT31;58935;54.498;18.544;2023-04-16T05:01:00;7.84;84.70
71206;SHT31;58935;54.498;18.544;2023-04-16T05:03:26;7.87;84.75
71206;SHT31;58935;54.498;18.544;2023-04-16T05:05:53;7.86;84.61
71206;SHT31;58935;54.498;18.544;2023-04-16T05:08:19;7.85;84.66
71206;SHT31;58935;54.498;18.544;2023-04-16T05:10:44;7.85;84.58
71206;SHT31;58935;54.498;18.544;2023-04-16T05:13:10;7.80;84.51
71206;SHT31;58935;54.498;18.544;2023-04-16T05:15:35;7.78;84.66
71206;SHT31;58935;54.498;18.544;2023-04-16T05:18:00;7.77;84.68
71206;SHT31;58935;54.498;18.544;2023-04-16T05:20:26;7.77;84.76
71206;SHT31;58935;54.498;18.544;2023-04-16T05:22:51;7.76;84.79
71206;SHT31;58935;54.498;18.544;2023-04-16T05:25:17;7.77;84.81
71206;SHT31;58935;54.498;18.544;2023-04-16T05:27:42;7.75;84.77
71206;SHT31;58935;54.498;18.544;2023-04-16T05:30:08;7.68;84.73
71206;SHT31;58935;54.498;18.544;2023-04-16T05:32:34;7.65;84.86
71206;SHT31;58935;54.498;18.544;2023-04-16T05:34:59;7.62;85.00
71206;SHT31;58935;54.498;18.544;2023-04-16T05:37:25;7.64;85.09
71206;SHT31;58935;54.498;18.544;2023-04-16T05:39:53;7.62;85.06
71206;SHT31;58935;54.498;18.544;2023-04-16T05:42:18;7.62;85.09
71206;SHT31;58935;54.498;18.544;2023-04-16T05:44:43;7.62;85.14
71206;SHT31;58935;54.498;18.544;2023-04-16T05:47:09;7.62;85.03
71206;SHT31;58935;54.498;18.544;2023-04-16T05:49:35;7.63;85.07
71206;SHT31;58935;54.498;18.544;2023-04-16T05:52:03;7.66;85.27
71206;SHT31;58935;54.498;18.544;2023-04-16T05:54:29;7.67;85.03
71206;SHT31;58935;54.498;18.544;2023-04-16T05:56:55;7.68;85.08
71206;SHT31;58935;54.498;18.544;2023-04-16T05:59:20;7.71;85.01
71206;SHT31;58935;54.498;18.544;2023-04-16T06:01:46;7.70;84.90
71206;SHT31;58935;54.498;18.544;2023-04-16T06:04:11;7.68;84.83
71206;SHT31;58935;54.498;18.544;2023-04-16T06:06:36;7.68;84.92
71206;SHT31;58935;54.498;18.544;2023-04-16T06:09:02;7.69;84.94
71206;SHT31;58935;54.498;18.544;2023-04-16T06:11:30;7.69;84.84
71206;SHT31;58935;54.498;18.544;2023-04-16T06:13:55;7.66;84.86
71206;SHT31;58935;54.498;18.544;2023-04-16T06:16:21;7.66;84.91
71206;SHT31;58935;54.498;18.544;2023-04-16T06:18:48;7.63;84.83
71206;SHT31;58935;54.498;18.544;2023-04-16T06:21:13;7.61;84.85
71206;SHT31;58935;54.498;18.544;2023-04-16T06:23:39;7.59;84.94
71206;SHT31;58935;54.498;18.544;2023-04-16T06:26:05;7.59;84.99
71206;SHT31;58935;54.498;18.544;2023-04-16T06:28:30;7.60;85.04
71206;SHT31;58935;54.498;18.544;2023-04-16T06:30:55;7.60;85.03
71206;SHT31;58935;54.498;18.544;2023-04-16T06:33:21;7.60;85.08
71206;SHT31;58935;54.498;18.544;2023-04-16T06:35:46;7.59;84.99
71206;SHT31;58935;54.498;18.544;2023-04-16T06:38:12;7.61;85.07
71206;SHT31;58935;54.498;18.544;2023-04-16T06:40:39;7.64;85.10
71206;SHT31;58935;54.498;18.544;2023-04-16T06:43:05;7.66;85.08
71206;SHT31;58935;54.498;18.544;2023-04-16T06:45:32;7.68;85.04
71206;SHT31;58935;54.498;18.544;2023-04-16T06:47:58;7.68;84.90
71206;SHT31;58935;54.498;18.544;2023-04-16T06:50:27;7.68;84.97
71206;SHT31;58935;54.498;18.544;2023-04-16T06:52:53;7.71;84.91
71206;SHT31;58935;54.498;18.544;2023-04-16T06:55:22;7.72;84.91
71206;SHT31;58935;54.498;18.544;2023-04-16T06:57:47;7.72;84.75
71206;SHT31;58935;54.498;18.544;2023-04-16T07:00:12;7.70;84.68
71206;SHT31;58935;54.498;18.544;2023-04-16T07:02:38;7.73;84.73
71206;SHT31;58935;54.498;18.544;2023-04-16T07:05:03;7.75;84.66
71206;SHT31;58935;54.498;18.544;2023-04-16T07:07:29;7.78;84.73
71206;SHT31;58935;54.498;18.544;2023-04-16T07:09:55;7.86;84.91
71206;SHT31;58935;54.498;18.544;2023-04-16T07:12:20;7.93;84.77
71206;SHT31;58935;54.498;18.544;2023-04-16T07:14:46;7.99;84.65
71206;SHT31;58935;54.498;18.544;2023-04-16T07:17:13;8.06;84.54
71206;SHT31;58935;54.498;18.544;2023-04-16T07:19:39;8.13;84.40
71206;SHT31;58935;54.498;18.544;2023-04-16T07:22:04;8.23;84.43
71206;SHT31;58935;54.498;18.544;2023-04-16T07:24:29;8.26;83.99
71206;SHT31;58935;54.498;18.544;2023-04-16T07:26:55;8.31;84.13
71206;SHT31;58935;54.498;18.544;2023-04-16T07:29:20;8.39;83.94
71206;SHT31;58935;54.498;18.544;2023-04-16T07:31:45;8.44;83.69
71206;SHT31;58935;54.498;18.544;2023-04-16T07:34:11;8.52;83.52
71206;SHT31;58935;54.498;18.544;2023-04-16T07:36:36;8.62;83.72
71206;SHT31;58935;54.498;18.544;2023-04-16T07:39:03;8.68;83.14
71206;SHT31;58935;54.498;18.544;2023-04-16T07:41:29;8.73;82.89
71206;SHT31;58935;54.498;18.544;2023-04-16T07:43:54;8.77;82.97
71206;SHT31;58935;54.498;18.544;2023-04-16T07:46:22;8.89;83.16
71206;SHT31;58935;54.498;18.544;2023-04-16T07:48:47;8.99;82.92
71206;SHT31;58935;54.498;18.544;2023-04-16T07:51:13;9.08;82.65
71206;SHT31;58935;54.498;18.544;2023-04-16T07:53:38;9.15;82.54
71206;SHT31;58935;54.498;18.544;2023-04-16T07:56:03;9.19;82.27
71206;SHT31;58935;54.498;18.544;2023-04-16T07:58:31;9.21;81.80
71206;SHT31;58935;54.498;18.544;2023-04-16T08:00:57;9.22;81.61
71206;SHT31;58935;54.498;18.544;2023-04-16T08:03:22;9.26;81.46
71206;SHT31;58935;54.498;18.544;2023-04-16T08:05:48;9.25;80.48
71206;SHT31;58935;54.498;18.544;2023-04-16T08:08:15;9.15;80.06
71206;SHT31;58935;54.498;18.544;2023-04-16T08:10:43;9.05;80.20
71206;SHT31;58935;54.498;18.544;2023-04-16T08:13:08;9.00;80.50
71206;SHT31;58935;54.498;18.544;2023-04-16T08:15:34;8.95;80.34
71206;SHT31;58935;54.498;18.544;2023-04-16T08:17:59;8.90;80.62
71206;SHT31;58935;54.498;18.544;2023-04-16T08:20:25;8.89;80.81
71206;SHT31;58935;54.498;18.544;2023-04-16T08:22:51;8.92;80.82
71206;SHT31;58935;54.498;18.544;2023-04-16T08:25:18;8.91;80.21
71206;SHT31;58935;54.498;18.544;2023-04-16T08:27:44;8.87;80.28
71206;SHT31;58935;54.498;18.544;2023-04-16T08:30:09;8.81;80.21
71206;SHT31;58935;54.498;18.544;2023-04-16T08:32:35;8.71;79.88
71206;SHT31;58935;54.498;18.544;2023-04-16T08:35:00;8.62;80.14
71206;SHT31;58935;54.498;18.544;2023-04-16T08:37:26;8.54;80.34
71206;SHT31;58935;54.498;18.544;2023-04-16T08:39:51;8.48;80.37
71206;SHT31;58935;54.498;18.544;2023-04-16T08:42:22;8.42;80.49
71206;SHT31;58935;54.498;18.544;2023-04-16T08:44:56;8.42;80.88
71206;SHT31;58935;54.498;18.544;2023-04-16T08:47:30;8.46;80.98
71206;SHT31;58935;54.498;18.544;2023-04-16T08:49:58;8.54;80.95
71206;SHT31;58935;54.498;18.544;2023-04-16T08:52:24;8.57;80.30
71206;SHT31;58935;54.498;18.544;2023-04-16T08:54:58;8.61;80.62
71206;SHT31;58935;54.498;18.544;2023-04-16T09:00:17;8.61;79.29
71206;SHT31;58935;54.498;18.544;2023-04-16T09:02:43;8.55;79.85
71206;SHT31;58935;54.498;18.544;2023-04-16T09:05:09;8.57;80.24
71206;SHT31;58935;54.498;18.544;2023-04-16T09:07:35;8.64;80.60
71206;SHT31;58935;54.498;18.544;2023-04-16T09:10:00;8.73;80.40
71206;SHT31;58935;54.498;18.544;2023-04-16T09:12:27;8.82;79.99
71206;SHT31;58935;54.498;18.544;2023-04-16T09:14:55;8.85;79.34
71206;SHT31;58935;54.498;18.544;2023-04-16T09:17:21;8.88;78.89
71206;SHT31;58935;54.498;18.544;2023-04-16T09:19:46;8.90;79.14
71206;SHT31;58935;54.498;18.544;2023-04-16T09:22:14;9.01;79.34
71206;SHT31;58935;54.498;18.544;2023-04-16T09:24:44;9.13;79.65
71206;SHT31;58935;54.498;18.544;2023-04-16T09:27:10;9.25;79.39
71206;SHT31;58935;54.498;18.544;2023-04-16T09:29:37;9.35;78.88
71206;SHT31;58935;54.498;18.544;2023-04-16T09:32:05;9.38;77.85
71206;SHT31;58935;54.498;18.544;2023-04-16T09:34:33;9.31;76.91
71206;SHT31;58935;54.498;18.544;2023-04-16T09:39:30;9.26;77.47
71206;SHT31;58935;54.498;18.544;2023-04-16T09:41:55;9.32;77.53
71206;SHT31;58935;54.498;18.544;2023-04-16T09:44:23;9.39;77.58
71206;SHT31;58935;54.498;18.544;2023-04-16T09:46:59;9.51;77.65
71206;SHT31;58935;54.498;18.544;2023-04-16T09:49:33;9.58;77.37
71206;SHT31;58935;54.498;18.544;2023-04-16T09:52:00;9.61;76.91
71206;SHT31;58935;54.498;18.544;2023-04-16T09:54:28;9.60;76.49
71206;SHT31;58935;54.498;18.544;2023-04-16T09:56:56;9.59;76.73
71206;SHT31;58935;54.498;18.544;2023-04-16T09:59:25;9.55;76.54
71206;SHT31;58935;54.498;18.544;2023-04-16T10:01:58;9.50;76.52
71206;SHT31;58935;54.498;18.544;2023-04-16T10:04:24;9.56;77.25
71206;SHT31;58935;54.498;18.544;2023-04-16T10:09:22;9.73;76.98
71206;SHT31;58935;54.498;18.544;2023-04-16T10:11:48;9.75;76.10
71206;SHT31;58935;54.498;18.544;2023-04-16T10:14:13;9.73;75.68
71206;SHT31;58935;54.498;18.544;2023-04-16T10:16:41;9.76;75.77
71206;SHT31;58935;54.498;18.544;2023-04-16T10:19:07;9.81;75.18
71206;SHT31;58935;54.498;18.544;2023-04-16T10:21:33;9.79;74.22
71206;SHT31;58935;54.498;18.544;2023-04-16T10:23:58;9.72;74.12
71206;SHT31;58935;54.498;18.544;2023-04-16T10:26:24;9.73;74.77
71206;SHT31;58935;54.498;18.544;2023-04-16T10:28:50;9.77;73.81
71206;SHT31;58935;54.498;18.544;2023-04-16T10:31:15;9.78;73.65
71206;SHT31;58935;54.498;18.544;2023-04-16T10:33:41;9.80;73.65
71206;SHT31;58935;54.498;18.544;2023-04-16T10:36:09;9.83;72.99
71206;SHT31;58935;54.498;18.544;2023-04-16T10:38:44;9.77;72.55
71206;SHT31;58935;54.498;18.544;2023-04-16T10:41:11;9.74;72.97
71206;SHT31;58935;54.498;18.544;2023-04-16T10:43:42;9.76;73.68
71206;SHT31;58935;54.498;18.544;2023-04-16T10:48:41;9.69;72.53
71206;SHT31;58935;54.498;18.544;2023-04-16T10:51:06;9.66;72.13
71206;SHT31;58935;54.498;18.544;2023-04-16T10:53:31;9.59;72.56
71206;SHT31;58935;54.498;18.544;2023-04-16T10:56:08;9.56;73.12
71206;SHT31;58935;54.498;18.544;2023-04-16T10:58:36;9.62;73.77
71206;SHT31;58935;54.498;18.544;2023-04-16T11:01:06;9.73;73.43
71206;SHT31;58935;54.498;18.544;2023-04-16T11:06:09;9.98;73.65
71206;SHT31;58935;54.498;18.544;2023-04-16T11:08:38;10.09;73.13
71206;SHT31;58935;54.498;18.544;2023-04-16T11:11:05;10.18;72.95
71206;SHT31;58935;54.498;18.544;2023-04-16T11:13:31;10.24;71.78
71206;SHT31;58935;54.498;18.544;2023-04-16T11:15:59;10.20;71.28
71206;SHT31;58935;54.498;18.544;2023-04-16T11:18:25;10.24;71.69
71206;SHT31;58935;54.498;18.544;2023-04-16T11:20:51;10.35;71.87
71206;SHT31;58935;54.498;18.544;2023-04-16T11:23:16;10.48;71.65
71206;SHT31;58935;54.498;18.544;2023-04-16T11:25:42;10.53;70.67
71206;SHT31;58935;54.498;18.544;2023-04-16T11:28:07;10.61;70.72
71206;SHT31;58935;54.498;18.544;2023-04-16T11:30:33;10.68;70.41
71206;SHT31;58935;54.498;18.544;2023-04-16T11:33:01;10.77;70.63
71206;SHT31;58935;54.498;18.544;2023-04-16T11:35:27;10.86;70.17
71206;SHT31;58935;54.498;18.544;2023-04-16T11:37:54;10.80;68.90
71206;SHT31;58935;54.498;18.544;2023-04-16T11:40:20;10.78;69.97
71206;SHT31;58935;54.498;18.544;2023-04-16T11:42:45;10.81;69.57
71206;SHT31;58935;54.498;18.544;2023-04-16T11:45:11;10.73;69.21
71206;SHT31;58935;54.498;18.544;2023-04-16T11:52:40;10.44;70.28
71206;SHT31;58935;54.498;18.544;2023-04-16T11:55:06;10.39;71.00
71206;SHT31;58935;54.498;18.544;2023-04-16T11:57:31;10.41;71.72
71206;SHT31;58935;54.498;18.544;2023-04-16T11:59:57;10.44;71.91
71206;SHT31;58935;54.498;18.544;2023-04-16T12:04:55;10.39;71.28
71206;SHT31;58935;54.498;18.544;2023-04-16T12:07:21;10.43;71.77
71206;SHT31;58935;54.498;18.544;2023-04-16T12:09:48;10.46;71.54
71206;SHT31;58935;54.498;18.544;2023-04-16T12:17:15;10.46;71.12
71206;SHT31;58935;54.498;18.544;2023-04-16T12:22:13;10.55;71.68
71206;SHT31;58935;54.498;18.544;2023-04-16T12:24:41;10.72;71.59
71206;SHT31;58935;54.498;18.544;2023-04-16T12:27:06;10.88;71.49
71206;SHT31;58935;54.498;18.544;2023-04-16T12:29:33;10.98;70.74
71206;SHT31;58935;54.498;18.544;2023-04-16T12:31:58;11.05;70.29
71206;SHT31;58935;54.498;18.544;2023-04-16T12:34:26;11.11;69.65
71206;SHT31;58935;54.498;18.544;2023-04-16T12:39:23;11.08;68.50
71206;SHT31;58935;54.498;18.544;2023-04-16T12:41:50;11.00;68.68
71206;SHT31;58935;54.498;18.544;2023-04-16T12:44:15;10.94;68.74
71206;SHT31;58935;54.498;18.544;2023-04-16T12:46:42;10.90;69.41
71206;SHT31;58935;54.498;18.544;2023-04-16T12:49:08;10.86;68.92
71206;SHT31;58935;54.498;18.544;2023-04-16T12:51:35;10.78;69.44
71206;SHT31;58935;54.498;18.544;2023-04-16T12:54:04;10.72;69.55
71206;SHT31;58935;54.498;18.544;2023-04-16T12:56:32;10.60;69.53
71206;SHT31;58935;54.498;18.544;2023-04-16T12:58:58;10.46;69.57
71206;SHT31;58935;54.498;18.544;2023-04-16T13:01:23;10.33;70.32
71206;SHT31;58935;54.498;18.544;2023-04-16T13:03:48;10.27;70.48
71206;SHT31;58935;54.498;18.544;2023-04-16T13:06:14;10.22;70.64
71206;SHT31;58935;54.498;18.544;2023-04-16T13:08:41;10.12;70.25
71206;SHT31;58935;54.498;18.544;2023-04-16T13:11:07;10.04;71.01
71206;SHT31;58935;54.498;18.544;2023-04-16T13:13:35;10.05;71.63
71206;SHT31;58935;54.498;18.544;2023-04-16T13:16:00;10.08;71.47
71206;SHT31;58935;54.498;18.544;2023-04-16T13:18:28;10.10;71.23
71206;SHT31;58935;54.498;18.544;2023-04-16T13:20:53;10.03;71.04
71206;SHT31;58935;54.498;18.544;2023-04-16T13:23:18;9.91;70.94
71206;SHT31;58935;54.498;18.544;2023-04-16T13:25:44;9.79;71.48
71206;SHT31;58935;54.498;18.544;2023-04-16T13:28:12;9.73;71.67
71206;SHT31;58935;54.498;18.544;2023-04-16T13:30:37;9.64;71.44
71206;SHT31;58935;54.498;18.544;2023-04-16T13:33:03;9.56;71.52
71206;SHT31;58935;54.498;18.544;2023-04-16T13:35:28;9.54;71.93
71206;SHT31;58935;54.498;18.544;2023-04-16T13:37:53;9.47;72.06
71206;SHT31;58935;54.498;18.544;2023-04-16T13:40:19;9.39;72.12
71206;SHT31;58935;54.498;18.544;2023-04-16T13:42:44;9.37;72.53
71206;SHT31;58935;54.498;18.544;2023-04-16T13:45:10;9.35;72.63
71206;SHT31;58935;54.498;18.544;2023-04-16T13:47:35;9.30;72.98
71206;SHT31;58935;54.498;18.544;2023-04-16T13:50:02;9.30;73.04
71206;SHT31;58935;54.498;18.544;2023-04-16T13:52:30;9.34;73.15
71206;SHT31;58935;54.498;18.544;2023-04-16T13:54:55;9.41;72.69
71206;SHT31;58935;54.498;18.544;2023-04-16T13:57:20;9.43;72.28
71206;SHT31;58935;54.498;18.544;2023-04-16T13:59:46;9.44;72.63
71206;SHT31;58935;54.498;18.544;2023-04-16T14:02:12;9.46;72.74
71206;SHT31;58935;54.498;18.544;2023-04-16T14:04:37;9.49;72.60
71206;SHT31;58935;54.498;18.544;2023-04-16T14:07:02;9.52;72.72
71206;SHT31;58935;54.498;18.544;2023-04-16T14:09:28;9.59;72.89
71206;SHT31;58935;54.498;18.544;2023-04-16T14:11:53;9.67;72.53
71206;SHT31;58935;54.498;18.544;2023-04-16T14:14:19;9.67;72.43
71206;SHT31;58935;54.498;18.544;2023-04-16T14:16:44;9.69;72.77
71206;SHT31;58935;54.498;18.544;2023-04-16T14:19:10;9.67;72.58
71206;SHT31;58935;54.498;18.544;2023-04-16T14:21:35;9.67;72.98
71206;SHT31;58935;54.498;18.544;2023-04-16T14:24:01;9.67;72.69
71206;SHT31;58935;54.498;18.544;2023-04-16T14:26:27;9.63;72.56
71206;SHT31;58935;54.498;18.544;2023-04-16T14:28:52;9.53;72.67
71206;SHT31;58935;54.498;18.544;2023-04-16T14:31:17;9.49;73.08
71206;SHT31;58935;54.498;18.544;2023-04-16T14:33:43;9.48;73.08
71206;SHT31;58935;54.498;18.544;2023-04-16T14:36:09;9.45;73.14
71206;SHT31;58935;54.498;18.544;2023-04-16T14:38:34;9.46;73.53
71206;SHT31;58935;54.498;18.544;2023-04-16T14:41:00;9.47;73.09
71206;SHT31;58935;54.498;18.544;2023-04-16T14:43:25;9.39;72.75
71206;SHT31;58935;54.498;18.544;2023-04-16T14:45:51;9.36;73.19
71206;SHT31;58935;54.498;18.544;2023-04-16T14:48:17;9.37;73.25
71206;SHT31;58935;54.498;18.544;2023-04-16T14:50:43;9.37;73.07
71206;SHT31;58935;54.498;18.544;2023-04-16T14:53:09;9.32;73.06
71206;SHT31;58935;54.498;18.544;2023-04-16T14:55:35;9.25;72.89
71206;SHT31;58935;54.498;18.544;2023-04-16T14:58:01;9.17;73.09
71206;SHT31;58935;54.498;18.544;2023-04-16T15:00:26;9.12;73.37
71206;SHT31;58935;54.498;18.544;2023-04-16T15:02:52;9.11;73.73
71206;SHT31;58935;54.498;18.544;2023-04-16T15:05:19;9.14;73.89
71206;SHT31;58935;54.498;18.544;2023-04-16T15:07:44;9.17;73.85
71206;SHT31;58935;54.498;18.544;2023-04-16T15:10:12;9.17;73.88
71206;SHT31;58935;54.498;18.544;2023-04-16T15:12:37;9.21;74.23
71206;SHT31;58935;54.498;18.544;2023-04-16T15:15:05;9.26;74.27
71206;SHT31;58935;54.498;18.544;2023-04-16T15:17:33;9.24;73.89
71206;SHT31;58935;54.498;18.544;2023-04-16T15:19:59;9.15;73.83
71206;SHT31;58935;54.498;18.544;2023-04-16T15:22:32;9.05;74.23
71206;SHT31;58935;54.498;18.544;2023-04-16T15:24:57;8.93;74.38
71206;SHT31;58935;54.498;18.544;2023-04-16T15:27:22;8.86;74.86
71206;SHT31;58935;54.498;18.544;2023-04-16T15:29:48;8.83;74.97
71206;SHT31;58935;54.498;18.544;2023-04-16T15:32:13;8.80;75.14
71206;SHT31;58935;54.498;18.544;2023-04-16T15:34:39;8.71;75.02
71206;SHT31;58935;54.498;18.544;2023-04-16T15:37:05;8.63;75.43
71206;SHT31;58935;54.498;18.544;2023-04-16T15:39:31;8.60;75.58
71206;SHT31;58935;54.498;18.544;2023-04-16T15:41:56;8.55;75.78
71206;SHT31;58935;54.498;18.544;2023-04-16T15:44:22;8.53;75.90
71206;SHT31;58935;54.498;18.544;2023-04-16T15:46:47;8.51;75.99
71206;SHT31;58935;54.498;18.544;2023-04-16T15:49:13;8.53;76.08
71206;SHT31;58935;54.498;18.544;2023-04-16T15:51:40;8.52;75.91
71206;SHT31;58935;54.498;18.544;2023-04-16T15:54:06;8.46;75.73